sensor_id;sensor_type;location;lat;lon;timestamp;P1;durP1;ratioP1;P2;durP2;ratioP2
70138;SDS011;57507;43.056;0.150;2023-06-26T00:01:19;2.47;;;1.40;;
70138;SDS011;57507;43.056;0.150;2023-06-26T00:03:46;3.70;;;2.30;;
70138;SDS011;57507;43.056;0.150;2023-06-26T00:06:12;1.95;;;1.33;;
70138;SDS011;57507;43.056;0.150;2023-06-26T00:08:38;2.85;;;1.95;;
70138;SDS011;57507;43.056;0.150;2023-06-26T00:11:04;2.55;;;1.45;;
70138;SDS011;57507;43.056;0.150;2023-06-26T00:13:30;2.92;;;1.50;;
70138;SDS011;57507;43.056;0.150;2023-06-26T00:15:56;3.35;;;1.98;;
70138;SDS011;57507;43.056;0.150;2023-06-26T00:18:22;4.07;;;1.63;;
70138;SDS011;57507;43.056;0.150;2023-06-26T00:20:49;2.17;;;1.63;;
70138;SDS011;57507;43.056;0.150;2023-06-26T00:23:18;2.28;;;1.60;;
70138;SDS011;57507;43.056;0.150;2023-06-26T00:25:44;3.80;;;1.80;;
70138;SDS011;57507;43.056;0.150;2023-06-26T00:28:10;2.30;;;1.77;;
70138;SDS011;57507;43.056;0.150;2023-06-26T00:30:36;2.00;;;1.80;;
70138;SDS011;57507;43.056;0.150;2023-06-26T00:33:02;3.75;;;2.60;;
70138;SDS011;57507;43.056;0.150;2023-06-26T00:35:28;2.47;;;1.77;;
70138;SDS011;57507;43.056;0.150;2023-06-26T00:37:54;2.00;;;1.60;;
70138;SDS011;57507;43.056;0.150;2023-06-26T00:40:20;2.40;;;1.30;;
70138;SDS011;57507;43.056;0.150;2023-06-26T00:42:46;2.33;;;1.60;;
70138;SDS011;57507;43.056;0.150;2023-06-26T00:45:12;2.53;;;1.80;;
70138;SDS011;57507;43.056;0.150;2023-06-26T00:47:38;2.70;;;1.70;;
70138;SDS011;57507;43.056;0.150;2023-06-26T00:50:04;2.47;;;1.70;;
70138;SDS011;57507;43.056;0.150;2023-06-26T00:52:31;2.38;;;1.65;;
70138;SDS011;57507;43.056;0.150;2023-06-26T00:54:57;2.35;;;1.80;;
70138;SDS011;57507;43.056;0.150;2023-06-26T00:57:23;3.25;;;1.95;;
70138;SDS011;57507;43.056;0.150;2023-06-26T00:59:49;3.50;;;1.73;;
70138;SDS011;57507;43.056;0.150;2023-06-26T01:02:16;2.97;;;1.80;;
70138;SDS011;57507;43.056;0.150;2023-06-26T01:04:48;2.53;;;1.73;;
70138;SDS011;57507;43.056;0.150;2023-06-26T01:07:15;2.10;;;1.38;;
70138;SDS011;57507;43.056;0.150;2023-06-26T01:09:43;2.33;;;1.50;;
70138;SDS011;57507;43.056;0.150;2023-06-26T01:12:10;3.85;;;1.92;;
70138;SDS011;57507;43.056;0.150;2023-06-26T01:14:36;2.40;;;1.65;;
70138;SDS011;57507;43.056;0.150;2023-06-26T01:17:02;3.03;;;1.70;;
70138;SDS011;57507;43.056;0.150;2023-06-26T01:19:28;3.75;;;1.80;;
70138;SDS011;57507;43.056;0.150;2023-06-26T01:27:23;3.05;;;1.70;;
70138;SDS011;57507;43.056;0.150;2023-06-26T01:29:50;1.75;;;1.58;;
70138;SDS011;57507;43.056;0.150;2023-06-26T01:32:17;2.55;;;1.75;;
70138;SDS011;57507;43.056;0.150;2023-06-26T01:34:43;2.28;;;1.70;;
70138;SDS011;57507;43.056;0.150;2023-06-26T01:37:10;2.42;;;1.77;;
70138;SDS011;57507;43.056;0.150;2023-06-26T01:39:36;5.18;;;1.70;;
70138;SDS011;57507;43.056;0.150;2023-06-26T01:42:02;1.85;;;1.63;;
70138;SDS011;57507;43.056;0.150;2023-06-26T01:44:28;2.08;;;1.48;;
70138;SDS011;57507;43.056;0.150;2023-06-26T01:49:23;2.03;;;1.35;;
70138;SDS011;57507;43.056;0.150;2023-06-26T01:54:29;2.00;;;1.60;;
70138;SDS011;57507;43.056;0.150;2023-06-26T01:56:56;2.55;;;1.45;;
70138;SDS011;57507;43.056;0.150;2023-06-26T01:59:23;1.98;;;1.23;;
70138;SDS011;57507;43.056;0.150;2023-06-26T02:01:49;2.25;;;1.50;;
70138;SDS011;57507;43.056;0.150;2023-06-26T02:04:16;1.60;;;1.38;;
70138;SDS011;57507;43.056;0.150;2023-06-26T02:06:42;4.05;;;1.42;;
70138;SDS011;57507;43.056;0.150;2023-06-26T02:09:08;2.90;;;1.65;;
70138;SDS011;57507;43.056;0.150;2023-06-26T02:11:34;1.90;;;1.52;;
70138;SDS011;57507;43.056;0.150;2023-06-26T02:14:00;2.00;;;1.80;;
70138;SDS011;57507;43.056;0.150;2023-06-26T02:16:26;2.05;;;1.55;;
70138;SDS011;57507;43.056;0.150;2023-06-26T02:18:52;2.72;;;1.58;;
70138;SDS011;57507;43.056;0.150;2023-06-26T02:21:18;1.52;;;1.40;;
70138;SDS011;57507;43.056;0.150;2023-06-26T02:23:44;2.08;;;1.40;;
70138;SDS011;57507;43.056;0.150;2023-06-26T02:26:10;2.33;;;1.35;;
70138;SDS011;57507;43.056;0.150;2023-06-26T02:28:36;2.33;;;1.90;;
70138;SDS011;57507;43.056;0.150;2023-06-26T02:31:02;2.33;;;1.60;;
70138;SDS011;57507;43.056;0.150;2023-06-26T02:33:29;3.20;;;1.65;;
70138;SDS011;57507;43.056;0.150;2023-06-26T02:35:55;2.17;;;1.30;;
70138;SDS011;57507;43.056;0.150;2023-06-26T02:38:21;2.28;;;1.55;;
70138;SDS011;57507;43.056;0.150;2023-06-26T02:40:47;2.05;;;1.50;;
70138;SDS011;57507;43.056;0.150;2023-06-26T02:43:13;1.70;;;1.60;;
70138;SDS011;57507;43.056;0.150;2023-06-26T02:45:39;2.88;;;1.63;;
70138;SDS011;57507;43.056;0.150;2023-06-26T02:48:05;2.45;;;1.48;;
70138;SDS011;57507;43.056;0.150;2023-06-26T02:50:31;1.73;;;1.15;;
70138;SDS011;57507;43.056;0.150;2023-06-26T02:52:57;2.85;;;1.40;;
70138;SDS011;57507;43.056;0.150;2023-06-26T02:55:24;1.85;;;1.45;;
70138;SDS011;57507;43.056;0.150;2023-06-26T02:57:50;1.52;;;1.30;;
70138;SDS011;57507;43.056;0.150;2023-06-26T03:00:16;2.20;;;1.10;;
70138;SDS011;57507;43.056;0.150;2023-06-26T03:02:42;1.75;;;1.40;;
70138;SDS011;57507;43.056;0.150;2023-06-26T03:05:08;1.35;;;1.20;;
70138;SDS011;57507;43.056;0.150;2023-06-26T03:07:34;1.45;;;1.20;;
70138;SDS011;57507;43.056;0.150;2023-06-26T03:10:00;1.63;;;1.15;;
70138;SDS011;57507;43.056;0.150;2023-06-26T03:12:26;1.55;;;1.20;;
70138;SDS011;57507;43.056;0.150;2023-06-26T03:14:52;1.60;;;1.20;;
70138;SDS011;57507;43.056;0.150;2023-06-26T03:17:18;2.05;;;1.27;;
70138;SDS011;57507;43.056;0.150;2023-06-26T03:19:44;1.42;;;1.10;;
70138;SDS011;57507;43.056;0.150;2023-06-26T03:22:10;1.73;;;1.20;;
70138;SDS011;57507;43.056;0.150;2023-06-26T03:24:36;2.50;;;1.20;;
70138;SDS011;57507;43.056;0.150;2023-06-26T03:27:02;2.33;;;1.20;;
70138;SDS011;57507;43.056;0.150;2023-06-26T03:29:29;1.55;;;1.17;;
70138;SDS011;57507;43.056;0.150;2023-06-26T03:31:55;1.88;;;1.40;;
70138;SDS011;57507;43.056;0.150;2023-06-26T03:34:21;1.77;;;1.30;;
70138;SDS011;57507;43.056;0.150;2023-06-26T03:36:47;1.90;;;1.20;;
70138;SDS011;57507;43.056;0.150;2023-06-26T03:39:13;1.52;;;1.13;;
70138;SDS011;57507;43.056;0.150;2023-06-26T03:41:39;1.48;;;1.25;;
70138;SDS011;57507;43.056;0.150;2023-06-26T03:44:05;1.75;;;1.30;;
70138;SDS011;57507;43.056;0.150;2023-06-26T03:46:31;1.30;;;1.10;;
70138;SDS011;57507;43.056;0.150;2023-06-26T03:48:57;1.35;;;1.05;;
70138;SDS011;57507;43.056;0.150;2023-06-26T03:51:23;1.80;;;1.15;;
70138;SDS011;57507;43.056;0.150;2023-06-26T03:53:49;2.00;;;1.30;;
70138;SDS011;57507;43.056;0.150;2023-06-26T03:56:15;2.03;;;1.20;;
70138;SDS011;57507;43.056;0.150;2023-06-26T03:58:42;1.85;;;1.00;;
70138;SDS011;57507;43.056;0.150;2023-06-26T04:01:08;1.20;;;1.10;;
70138;SDS011;57507;43.056;0.150;2023-06-26T04:03:34;2.58;;;1.50;;
70138;SDS011;57507;43.056;0.150;2023-06-26T04:06:00;1.60;;;1.35;;
70138;SDS011;57507;43.056;0.150;2023-06-26T04:08:26;1.08;;;0.98;;
70138;SDS011;57507;43.056;0.150;2023-06-26T04:10:52;0.98;;;0.88;;
70138;SDS011;57507;43.056;0.150;2023-06-26T04:13:20;3.40;;;1.10;;
70138;SDS011;57507;43.056;0.150;2023-06-26T04:15:46;1.80;;;1.10;;
70138;SDS011;57507;43.056;0.150;2023-06-26T04:18:12;2.60;;;1.20;;
70138;SDS011;57507;43.056;0.150;2023-06-26T04:20:39;1.40;;;1.30;;
70138;SDS011;57507;43.056;0.150;2023-06-26T04:23:05;1.52;;;1.10;;
70138;SDS011;57507;43.056;0.150;2023-06-26T04:25:31;2.03;;;1.48;;
70138;SDS011;57507;43.056;0.150;2023-06-26T04:27:57;1.98;;;1.30;;
70138;SDS011;57507;43.056;0.150;2023-06-26T04:30:23;3.53;;;1.80;;
70138;SDS011;57507;43.056;0.150;2023-06-26T04:32:50;1.40;;;1.25;;
70138;SDS011;57507;43.056;0.150;2023-06-26T04:35:16;3.42;;;1.80;;
70138;SDS011;57507;43.056;0.150;2023-06-26T04:37:42;1.75;;;1.30;;
70138;SDS011;57507;43.056;0.150;2023-06-26T04:40:08;4.25;;;1.83;;
70138;SDS011;57507;43.056;0.150;2023-06-26T04:42:36;3.10;;;1.52;;
70138;SDS011;57507;43.056;0.150;2023-06-26T04:45:02;2.17;;;1.73;;
70138;SDS011;57507;43.056;0.150;2023-06-26T04:47:28;2.72;;;1.58;;
70138;SDS011;57507;43.056;0.150;2023-06-26T04:49:54;3.45;;;1.88;;
70138;SDS011;57507;43.056;0.150;2023-06-26T04:52:20;3.55;;;1.85;;
70138;SDS011;57507;43.056;0.150;2023-06-26T04:54:46;3.55;;;1.63;;
70138;SDS011;57507;43.056;0.150;2023-06-26T04:57:12;1.77;;;1.50;;
70138;SDS011;57507;43.056;0.150;2023-06-26T04:59:39;3.03;;;1.73;;
70138;SDS011;57507;43.056;0.150;2023-06-26T05:02:06;3.60;;;2.15;;
70138;SDS011;57507;43.056;0.150;2023-06-26T05:04:32;4.03;;;2.03;;
70138;SDS011;57507;43.056;0.150;2023-06-26T05:06:58;3.50;;;2.22;;
70138;SDS011;57507;43.056;0.150;2023-06-26T05:09:24;2.28;;;1.67;;
70138;SDS011;57507;43.056;0.150;2023-06-26T05:11:50;2.92;;;1.92;;
70138;SDS011;57507;43.056;0.150;2023-06-26T05:14:16;3.42;;;2.30;;
70138;SDS011;57507;43.056;0.150;2023-06-26T05:16:42;2.33;;;1.73;;
70138;SDS011;57507;43.056;0.150;2023-06-26T05:19:08;3.83;;;1.90;;
70138;SDS011;57507;43.056;0.150;2023-06-26T05:21:34;2.83;;;1.60;;
70138;SDS011;57507;43.056;0.150;2023-06-26T05:24:00;2.25;;;1.90;;
70138;SDS011;57507;43.056;0.150;2023-06-26T05:26:26;4.75;;;2.63;;
70138;SDS011;57507;43.056;0.150;2023-06-26T05:28:53;3.38;;;2.20;;
70138;SDS011;57507;43.056;0.150;2023-06-26T05:31:19;2.83;;;1.90;;
70138;SDS011;57507;43.056;0.150;2023-06-26T05:33:45;2.97;;;2.08;;
70138;SDS011;57507;43.056;0.150;2023-06-26T05:36:12;3.03;;;2.10;;
70138;SDS011;57507;43.056;0.150;2023-06-26T05:38:39;4.35;;;1.88;;
70138;SDS011;57507;43.056;0.150;2023-06-26T05:41:05;3.03;;;2.20;;
70138;SDS011;57507;43.056;0.150;2023-06-26T05:43:31;4.18;;;2.40;;
70138;SDS011;57507;43.056;0.150;2023-06-26T05:45:57;4.13;;;2.58;;
70138;SDS011;57507;43.056;0.150;2023-06-26T05:48:23;4.78;;;2.55;;
70138;SDS011;57507;43.056;0.150;2023-06-26T05:50:49;3.58;;;2.28;;
70138;SDS011;57507;43.056;0.150;2023-06-26T05:53:15;2.70;;;1.58;;
70138;SDS011;57507;43.056;0.150;2023-06-26T05:55:41;2.75;;;2.05;;
70138;SDS011;57507;43.056;0.150;2023-06-26T05:58:09;2.85;;;2.00;;
70138;SDS011;57507;43.056;0.150;2023-06-26T06:00:36;3.33;;;2.13;;
70138;SDS011;57507;43.056;0.150;2023-06-26T06:03:02;4.32;;;2.42;;
70138;SDS011;57507;43.056;0.150;2023-06-26T06:05:28;3.40;;;2.15;;
70138;SDS011;57507;43.056;0.150;2023-06-26T06:07:54;4.57;;;2.60;;
70138;SDS011;57507;43.056;0.150;2023-06-26T06:10:20;4.22;;;2.25;;
70138;SDS011;57507;43.056;0.150;2023-06-26T06:12:46;2.30;;;1.80;;
70138;SDS011;57507;43.056;0.150;2023-06-26T06:15:12;2.80;;;2.28;;
70138;SDS011;57507;43.056;0.150;2023-06-26T06:17:39;2.50;;;2.30;;
70138;SDS011;57507;43.056;0.150;2023-06-26T06:20:05;2.55;;;2.10;;
70138;SDS011;57507;43.056;0.150;2023-06-26T06:22:31;2.88;;;1.80;;
70138;SDS011;57507;43.056;0.150;2023-06-26T06:24:57;3.60;;;2.67;;
70138;SDS011;57507;43.056;0.150;2023-06-26T06:27:23;4.60;;;2.30;;
70138;SDS011;57507;43.056;0.150;2023-06-26T06:29:49;3.10;;;2.30;;
70138;SDS011;57507;43.056;0.150;2023-06-26T06:32:16;3.95;;;2.05;;
70138;SDS011;57507;43.056;0.150;2023-06-26T06:34:42;2.60;;;2.17;;
70138;SDS011;57507;43.056;0.150;2023-06-26T06:37:08;2.33;;;2.05;;
70138;SDS011;57507;43.056;0.150;2023-06-26T06:39:34;4.30;;;1.92;;
70138;SDS011;57507;43.056;0.150;2023-06-26T06:42:00;2.95;;;2.33;;
70138;SDS011;57507;43.056;0.150;2023-06-26T06:44:26;3.92;;;2.22;;
70138;SDS011;57507;43.056;0.150;2023-06-26T06:46:52;3.10;;;2.00;;
70138;SDS011;57507;43.056;0.150;2023-06-26T06:49:18;3.30;;;2.17;;
70138;SDS011;57507;43.056;0.150;2023-06-26T06:51:44;5.13;;;2.40;;
70138;SDS011;57507;43.056;0.150;2023-06-26T06:54:10;2.38;;;2.08;;
70138;SDS011;57507;43.056;0.150;2023-06-26T06:56:36;2.60;;;2.13;;
70138;SDS011;57507;43.056;0.150;2023-06-26T06:59:02;2.70;;;2.05;;
70138;SDS011;57507;43.056;0.150;2023-06-26T07:01:28;5.15;;;2.72;;
70138;SDS011;57507;43.056;0.150;2023-06-26T07:03:54;3.65;;;2.60;;
70138;SDS011;57507;43.056;0.150;2023-06-26T07:06:20;3.63;;;2.17;;
70138;SDS011;57507;43.056;0.150;2023-06-26T07:08:46;3.55;;;2.22;;
70138;SDS011;57507;43.056;0.150;2023-06-26T07:11:12;2.72;;;1.90;;
70138;SDS011;57507;43.056;0.150;2023-06-26T07:13:38;4.35;;;2.60;;
70138;SDS011;57507;43.056;0.150;2023-06-26T07:16:04;3.97;;;2.42;;
70138;SDS011;57507;43.056;0.150;2023-06-26T07:18:30;4.53;;;2.20;;
70138;SDS011;57507;43.056;0.150;2023-06-26T07:20:56;2.85;;;2.17;;
70138;SDS011;57507;43.056;0.150;2023-06-26T07:23:22;2.95;;;1.95;;
70138;SDS011;57507;43.056;0.150;2023-06-26T07:25:48;4.75;;;2.35;;
70138;SDS011;57507;43.056;0.150;2023-06-26T07:28:14;2.90;;;2.15;;
70138;SDS011;57507;43.056;0.150;2023-06-26T07:30:41;5.18;;;2.40;;
70138;SDS011;57507;43.056;0.150;2023-06-26T07:33:07;3.75;;;1.88;;
70138;SDS011;57507;43.056;0.150;2023-06-26T07:35:33;4.53;;;2.50;;
70138;SDS011;57507;43.056;0.150;2023-06-26T07:37:59;3.25;;;2.10;;
70138;SDS011;57507;43.056;0.150;2023-06-26T07:40:25;4.65;;;2.15;;
70138;SDS011;57507;43.056;0.150;2023-06-26T07:42:52;4.40;;;2.50;;
70138;SDS011;57507;43.056;0.150;2023-06-26T07:45:19;3.88;;;2.50;;
70138;SDS011;57507;43.056;0.150;2023-06-26T07:47:45;4.43;;;2.55;;
70138;SDS011;57507;43.056;0.150;2023-06-26T07:50:11;3.20;;;2.20;;
70138;SDS011;57507;43.056;0.150;2023-06-26T07:52:40;3.83;;;1.90;;
70138;SDS011;57507;43.056;0.150;2023-06-26T07:55:06;3.97;;;2.42;;
70138;SDS011;57507;43.056;0.150;2023-06-26T07:57:32;2.63;;;1.85;;
70138;SDS011;57507;43.056;0.150;2023-06-26T07:59:58;4.20;;;2.20;;
70138;SDS011;57507;43.056;0.150;2023-06-26T08:02:25;2.85;;;1.90;;
70138;SDS011;57507;43.056;0.150;2023-06-26T08:04:51;3.70;;;1.92;;
70138;SDS011;57507;43.056;0.150;2023-06-26T08:07:17;3.95;;;2.38;;
70138;SDS011;57507;43.056;0.150;2023-06-26T08:09:43;3.63;;;2.30;;
70138;SDS011;57507;43.056;0.150;2023-06-26T08:12:09;4.55;;;2.40;;
70138;SDS011;57507;43.056;0.150;2023-06-26T08:14:35;3.70;;;2.13;;
70138;SDS011;57507;43.056;0.150;2023-06-26T08:17:01;4.60;;;2.25;;
70138;SDS011;57507;43.056;0.150;2023-06-26T08:19:28;4.60;;;2.08;;
70138;SDS011;57507;43.056;0.150;2023-06-26T08:21:54;3.55;;;2.00;;
70138;SDS011;57507;43.056;0.150;2023-06-26T08:24:20;2.92;;;1.73;;
70138;SDS011;57507;43.056;0.150;2023-06-26T08:26:46;3.35;;;1.92;;
70138;SDS011;57507;43.056;0.150;2023-06-26T08:29:12;4.00;;;2.20;;
70138;SDS011;57507;43.056;0.150;2023-06-26T08:31:39;4.32;;;2.20;;
70138;SDS011;57507;43.056;0.150;2023-06-26T08:34:05;5.78;;;1.90;;
70138;SDS011;57507;43.056;0.150;2023-06-26T08:36:32;5.28;;;2.40;;
70138;SDS011;57507;43.056;0.150;2023-06-26T08:38:58;2.35;;;1.80;;
70138;SDS011;57507;43.056;0.150;2023-06-26T08:41:24;3.78;;;2.22;;
70138;SDS011;57507;43.056;0.150;2023-06-26T08:43:50;2.58;;;1.90;;
70138;SDS011;57507;43.056;0.150;2023-06-26T08:46:17;4.43;;;2.25;;
70138;SDS011;57507;43.056;0.150;2023-06-26T08:51:33;3.63;;;2.08;;
70138;SDS011;57507;43.056;0.150;2023-06-26T08:54:02;3.72;;;2.03;;
70138;SDS011;57507;43.056;0.150;2023-06-26T08:56:32;3.00;;;2.03;;
70138;SDS011;57507;43.056;0.150;2023-06-26T08:59:01;2.95;;;2.17;;
70138;SDS011;57507;43.056;0.150;2023-06-26T09:01:27;2.95;;;1.90;;
70138;SDS011;57507;43.056;0.150;2023-06-26T09:03:53;3.33;;;2.08;;
70138;SDS011;57507;43.056;0.150;2023-06-26T09:06:19;4.68;;;2.33;;
70138;SDS011;57507;43.056;0.150;2023-06-26T09:08:45;3.80;;;2.33;;
70138;SDS011;57507;43.056;0.150;2023-06-26T09:11:12;3.58;;;2.50;;
70138;SDS011;57507;43.056;0.150;2023-06-26T09:13:38;3.97;;;2.28;;
70138;SDS011;57507;43.056;0.150;2023-06-26T09:16:08;3.53;;;2.60;;
70138;SDS011;57507;43.056;0.150;2023-06-26T09:18:34;4.65;;;2.17;;
70138;SDS011;57507;43.056;0.150;2023-06-26T09:21:03;3.85;;;2.38;;
70138;SDS011;57507;43.056;0.150;2023-06-26T09:23:31;3.85;;;2.30;;
70138;SDS011;57507;43.056;0.150;2023-06-26T09:25:57;3.15;;;2.17;;
70138;SDS011;57507;43.056;0.150;2023-06-26T09:28:23;2.92;;;2.13;;
70138;SDS011;57507;43.056;0.150;2023-06-26T09:30:50;5.90;;;2.33;;
70138;SDS011;57507;43.056;0.150;2023-06-26T09:33:18;5.13;;;2.30;;
70138;SDS011;57507;43.056;0.150;2023-06-26T09:35:44;4.32;;;2.45;;
70138;SDS011;57507;43.056;0.150;2023-06-26T09:38:11;3.72;;;2.28;;
70138;SDS011;57507;43.056;0.150;2023-06-26T09:40:38;3.25;;;2.28;;
70138;SDS011;57507;43.056;0.150;2023-06-26T09:43:04;5.15;;;2.30;;
70138;SDS011;57507;43.056;0.150;2023-06-26T09:45:31;4.07;;;2.30;;
70138;SDS011;57507;43.056;0.150;2023-06-26T09:48:00;6.00;;;2.28;;
70138;SDS011;57507;43.056;0.150;2023-06-26T09:50:28;3.22;;;2.08;;
70138;SDS011;57507;43.056;0.150;2023-06-26T09:52:54;2.47;;;1.77;;
70138;SDS011;57507;43.056;0.150;2023-06-26T09:55:20;2.20;;;1.75;;
70138;SDS011;57507;43.056;0.150;2023-06-26T09:57:48;4.10;;;2.33;;
70138;SDS011;57507;43.056;0.150;2023-06-26T10:00:15;3.22;;;2.20;;
70138;SDS011;57507;43.056;0.150;2023-06-26T10:02:41;3.72;;;2.22;;
70138;SDS011;57507;43.056;0.150;2023-06-26T10:05:07;3.95;;;2.00;;
70138;SDS011;57507;43.056;0.150;2023-06-26T10:07:33;1.67;;;1.33;;
70138;SDS011;57507;43.056;0.150;2023-06-26T10:10:00;2.13;;;1.45;;
70138;SDS011;57507;43.056;0.150;2023-06-26T10:12:29;3.97;;;2.10;;
70138;SDS011;57507;43.056;0.150;2023-06-26T10:14:57;2.88;;;1.70;;
70138;SDS011;57507;43.056;0.150;2023-06-26T10:17:24;2.35;;;1.98;;
70138;SDS011;57507;43.056;0.150;2023-06-26T10:19:50;3.20;;;1.52;;
70138;SDS011;57507;43.056;0.150;2023-06-26T10:22:19;1.80;;;1.65;;
70138;SDS011;57507;43.056;0.150;2023-06-26T10:24:47;3.38;;;1.77;;
70138;SDS011;57507;43.056;0.150;2023-06-26T10:29:43;2.75;;;1.70;;
70138;SDS011;57507;43.056;0.150;2023-06-26T10:32:10;3.33;;;1.88;;
70138;SDS011;57507;43.056;0.150;2023-06-26T10:34:37;2.78;;;1.83;;
70138;SDS011;57507;43.056;0.150;2023-06-26T10:37:03;2.00;;;1.80;;
70138;SDS011;57507;43.056;0.150;2023-06-26T10:39:48;3.20;;;1.67;;
70138;SDS011;57507;43.056;0.150;2023-06-26T10:42:15;2.45;;;1.95;;
70138;SDS011;57507;43.056;0.150;2023-06-26T10:44:45;2.08;;;1.50;;
70138;SDS011;57507;43.056;0.150;2023-06-26T10:47:33;3.95;;;1.90;;
70138;SDS011;57507;43.056;0.150;2023-06-26T10:52:42;2.20;;;1.65;;
70138;SDS011;57507;43.056;0.150;2023-06-26T10:55:09;2.53;;;1.85;;
70138;SDS011;57507;43.056;0.150;2023-06-26T10:57:38;2.45;;;1.73;;
70138;SDS011;57507;43.056;0.150;2023-06-26T11:00:11;2.88;;;1.90;;
70138;SDS011;57507;43.056;0.150;2023-06-26T11:02:51;2.78;;;1.92;;
70138;SDS011;57507;43.056;0.150;2023-06-26T11:05:24;3.38;;;2.00;;
70138;SDS011;57507;43.056;0.150;2023-06-26T11:10:29;2.65;;;1.80;;
70138;SDS011;57507;43.056;0.150;2023-06-26T11:12:57;2.90;;;2.10;;
70138;SDS011;57507;43.056;0.150;2023-06-26T11:15:24;4.15;;;2.38;;
70138;SDS011;57507;43.056;0.150;2023-06-26T11:17:50;3.83;;;2.58;;
70138;SDS011;57507;43.056;0.150;2023-06-26T11:20:17;3.15;;;1.92;;
70138;SDS011;57507;43.056;0.150;2023-06-26T11:22:43;3.30;;;1.98;;
70138;SDS011;57507;43.056;0.150;2023-06-26T11:25:09;3.20;;;2.15;;
70138;SDS011;57507;43.056;0.150;2023-06-26T11:27:39;2.60;;;2.00;;
70138;SDS011;57507;43.056;0.150;2023-06-26T11:30:05;3.13;;;1.70;;
70138;SDS011;57507;43.056;0.150;2023-06-26T11:32:32;3.35;;;1.90;;
70138;SDS011;57507;43.056;0.150;2023-06-26T11:34:59;2.40;;;1.83;;
70138;SDS011;57507;43.056;0.150;2023-06-26T11:37:25;2.72;;;2.00;;
70138;SDS011;57507;43.056;0.150;2023-06-26T11:39:51;4.38;;;2.15;;
70138;SDS011;57507;43.056;0.150;2023-06-26T11:42:18;4.38;;;2.45;;
70138;SDS011;57507;43.056;0.150;2023-06-26T11:44:44;4.43;;;2.47;;
70138;SDS011;57507;43.056;0.150;2023-06-26T11:47:19;5.05;;;2.10;;
70138;SDS011;57507;43.056;0.150;2023-06-26T11:49:46;4.40;;;2.17;;
70138;SDS011;57507;43.056;0.150;2023-06-26T11:52:13;5.68;;;3.00;;
70138;SDS011;57507;43.056;0.150;2023-06-26T11:54:44;3.15;;;1.80;;
70138;SDS011;57507;43.056;0.150;2023-06-26T11:57:14;3.42;;;2.10;;
70138;SDS011;57507;43.056;0.150;2023-06-26T11:59:40;5.22;;;2.30;;
70138;SDS011;57507;43.056;0.150;2023-06-26T12:02:10;3.35;;;2.60;;
70138;SDS011;57507;43.056;0.150;2023-06-26T12:04:36;3.50;;;2.10;;
70138;SDS011;57507;43.056;0.150;2023-06-26T12:07:04;3.60;;;2.53;;
70138;SDS011;57507;43.056;0.150;2023-06-26T12:09:32;3.53;;;2.38;;
70138;SDS011;57507;43.056;0.150;2023-06-26T12:11:58;2.97;;;2.05;;
70138;SDS011;57507;43.056;0.150;2023-06-26T12:14:25;4.30;;;2.05;;
70138;SDS011;57507;43.056;0.150;2023-06-26T12:16:53;3.72;;;1.90;;
70138;SDS011;57507;43.056;0.150;2023-06-26T12:19:24;3.28;;;2.00;;
70138;SDS011;57507;43.056;0.150;2023-06-26T12:21:51;3.97;;;2.30;;
70138;SDS011;57507;43.056;0.150;2023-06-26T12:24:18;3.63;;;1.75;;
70138;SDS011;57507;43.056;0.150;2023-06-26T12:26:45;3.05;;;2.22;;
70138;SDS011;57507;43.056;0.150;2023-06-26T12:29:13;3.30;;;1.95;;
70138;SDS011;57507;43.056;0.150;2023-06-26T12:31:52;3.33;;;2.05;;
70138;SDS011;57507;43.056;0.150;2023-06-26T12:34:26;4.10;;;2.17;;
70138;SDS011;57507;43.056;0.150;2023-06-26T12:36:52;3.47;;;2.10;;
70138;SDS011;57507;43.056;0.150;2023-06-26T12:39:21;3.00;;;1.83;;
70138;SDS011;57507;43.056;0.150;2023-06-26T12:41:48;1.85;;;1.63;;
70138;SDS011;57507;43.056;0.150;2023-06-26T12:44:22;4.70;;;2.35;;
70138;SDS011;57507;43.056;0.150;2023-06-26T12:46:53;6.93;;;2.10;;
70138;SDS011;57507;43.056;0.150;2023-06-26T12:49:19;3.53;;;1.90;;
70138;SDS011;57507;43.056;0.150;2023-06-26T12:51:46;3.20;;;1.90;;
70138;SDS011;57507;43.056;0.150;2023-06-26T12:54:13;2.97;;;2.50;;
70138;SDS011;57507;43.056;0.150;2023-06-26T12:56:39;5.28;;;2.17;;
70138;SDS011;57507;43.056;0.150;2023-06-26T12:59:05;2.60;;;2.05;;
70138;SDS011;57507;43.056;0.150;2023-06-26T13:01:31;3.95;;;2.40;;
70138;SDS011;57507;43.056;0.150;2023-06-26T13:03:57;3.72;;;2.50;;
70138;SDS011;57507;43.056;0.150;2023-06-26T13:06:23;6.07;;;2.92;;
70138;SDS011;57507;43.056;0.150;2023-06-26T13:08:49;4.82;;;2.55;;
70138;SDS011;57507;43.056;0.150;2023-06-26T13:11:16;6.78;;;2.80;;
70138;SDS011;57507;43.056;0.150;2023-06-26T13:13:42;4.03;;;2.45;;
70138;SDS011;57507;43.056;0.150;2023-06-26T13:16:08;3.85;;;2.33;;
70138;SDS011;57507;43.056;0.150;2023-06-26T13:18:34;3.28;;;2.42;;
70138;SDS011;57507;43.056;0.150;2023-06-26T13:21:00;3.70;;;2.50;;
70138;SDS011;57507;43.056;0.150;2023-06-26T13:23:26;4.28;;;2.80;;
70138;SDS011;57507;43.056;0.150;2023-06-26T13:25:53;4.97;;;2.60;;
70138;SDS011;57507;43.056;0.150;2023-06-26T13:28:19;5.78;;;3.30;;
70138;SDS011;57507;43.056;0.150;2023-06-26T13:30:45;5.88;;;2.65;;
70138;SDS011;57507;43.056;0.150;2023-06-26T13:33:11;3.38;;;2.38;;
70138;SDS011;57507;43.056;0.150;2023-06-26T13:35:37;3.17;;;2.30;;
70138;SDS011;57507;43.056;0.150;2023-06-26T13:38:03;1.88;;;1.60;;
70138;SDS011;57507;43.056;0.150;2023-06-26T13:40:29;4.15;;;2.40;;
70138;SDS011;57507;43.056;0.150;2023-06-26T13:42:55;4.00;;;2.00;;
70138;SDS011;57507;43.056;0.150;2023-06-26T13:45:21;2.88;;;1.95;;
70138;SDS011;57507;43.056;0.150;2023-06-26T13:47:47;3.13;;;2.00;;
70138;SDS011;57507;43.056;0.150;2023-06-26T13:50:14;3.13;;;2.20;;
70138;SDS011;57507;43.056;0.150;2023-06-26T13:52:40;5.00;;;3.33;;
70138;SDS011;57507;43.056;0.150;2023-06-26T13:55:06;5.07;;;2.60;;
70138;SDS011;57507;43.056;0.150;2023-06-26T13:57:32;3.55;;;1.90;;
70138;SDS011;57507;43.056;0.150;2023-06-26T13:59:58;4.03;;;2.22;;
70138;SDS011;57507;43.056;0.150;2023-06-26T14:02:24;4.65;;;2.00;;
70138;SDS011;57507;43.056;0.150;2023-06-26T14:04:51;3.13;;;2.05;;
70138;SDS011;57507;43.056;0.150;2023-06-26T14:07:17;3.38;;;2.00;;
70138;SDS011;57507;43.056;0.150;2023-06-26T14:09:44;3.15;;;1.90;;
70138;SDS011;57507;43.056;0.150;2023-06-26T14:12:10;3.70;;;2.17;;
70138;SDS011;57507;43.056;0.150;2023-06-26T14:14:36;5.38;;;1.70;;
70138;SDS011;57507;43.056;0.150;2023-06-26T14:17:02;3.05;;;1.75;;
70138;SDS011;57507;43.056;0.150;2023-06-26T14:19:30;4.97;;;2.13;;
70138;SDS011;57507;43.056;0.150;2023-06-26T14:21:56;2.85;;;2.10;;
70138;SDS011;57507;43.056;0.150;2023-06-26T14:24:22;3.75;;;2.08;;
70138;SDS011;57507;43.056;0.150;2023-06-26T14:26:48;5.00;;;2.00;;
70138;SDS011;57507;43.056;0.150;2023-06-26T14:29:14;3.33;;;2.28;;
70138;SDS011;57507;43.056;0.150;2023-06-26T14:31:42;3.60;;;1.98;;
70138;SDS011;57507;43.056;0.150;2023-06-26T14:34:08;5.43;;;2.00;;
70138;SDS011;57507;43.056;0.150;2023-06-26T14:36:34;4.15;;;2.15;;
70138;SDS011;57507;43.056;0.150;2023-06-26T14:39:02;4.72;;;2.15;;
70138;SDS011;57507;43.056;0.150;2023-06-26T14:41:29;3.95;;;2.28;;
70138;SDS011;57507;43.056;0.150;2023-06-26T14:43:55;4.07;;;2.40;;
70138;SDS011;57507;43.056;0.150;2023-06-26T14:46:21;5.00;;;2.28;;
70138;SDS011;57507;43.056;0.150;2023-06-26T14:48:47;5.78;;;2.25;;
70138;SDS011;57507;43.056;0.150;2023-06-26T14:51:14;5.45;;;2.55;;
70138;SDS011;57507;43.056;0.150;2023-06-26T14:53:40;3.42;;;2.22;;
70138;SDS011;57507;43.056;0.150;2023-06-26T14:56:07;5.00;;;2.30;;
70138;SDS011;57507;43.056;0.150;2023-06-26T14:58:33;4.03;;;2.33;;
70138;SDS011;57507;43.056;0.150;2023-06-26T15:00:59;3.47;;;2.30;;
70138;SDS011;57507;43.056;0.150;2023-06-26T15:03:25;5.63;;;1.95;;
70138;SDS011;57507;43.056;0.150;2023-06-26T15:05:51;5.70;;;2.10;;